createdAt,value
2022-10-01T00:01:16.552Z,7.94
2022-10-01T00:04:18.330Z,7.93
2022-10-01T00:07:20.086Z,7.89
2022-10-01T00:10:24.074Z,7.81
2022-10-01T00:13:25.797Z,7.79
2022-10-01T00:16:29.212Z,7.69
2022-10-01T00:19:31.060Z,7.69
2022-10-01T00:22:33.785Z,7.62
2022-10-01T00:25:35.519Z,7.54
2022-10-01T00:28:37.337Z,7.58
2022-10-01T00:31:39.563Z,7.48
2022-10-01T00:34:41.546Z,7.48
2022-10-01T00:37:43.231Z,7.44
2022-10-01T00:40:44.956Z,7.37
2022-10-01T00:43:59.133Z,7.40
2022-10-01T00:47:21.978Z,7.36
2022-10-01T00:50:33.768Z,7.33
2022-10-01T00:53:35.577Z,7.26
2022-10-01T00:56:38.264Z,7.23
2022-10-01T00:59:40.053Z,7.19
2022-10-01T01:02:43.836Z,7.23
2022-10-01T01:05:50.215Z,7.18
2022-10-01T01:08:55.244Z,7.11
2022-10-01T01:12:10.862Z,7.13
2022-10-01T01:15:20.583Z,7.11
2022-10-01T01:18:40.345Z,7.09
2022-10-01T01:21:52.000Z,7.06
2022-10-01T01:25:07.357Z,7.03
2022-10-01T01:28:31.807Z,7.01
2022-10-01T01:31:40.422Z,6.97
2022-10-01T01:34:45.500Z,6.97
2022-10-01T01:37:53.549Z,6.90
2022-10-01T01:40:59.302Z,6.84
2022-10-01T01:44:03.102Z,6.89
2022-10-01T01:47:07.435Z,6.85
2022-10-01T01:50:10.913Z,6.82
2022-10-01T01:53:12.569Z,6.77
2022-10-01T01:56:14.319Z,6.76
2022-10-01T01:59:19.619Z,6.72
2022-10-01T02:02:26.866Z,6.69
2022-10-01T02:05:37.586Z,6.66
2022-10-01T02:09:14.265Z,6.62
2022-10-01T02:12:44.400Z,6.62
2022-10-01T02:15:59.810Z,6.63
2022-10-01T02:19:10.148Z,6.64
2022-10-01T02:22:18.924Z,6.64
2022-10-01T02:25:27.032Z,6.66
2022-10-01T02:28:33.418Z,6.68
2022-10-01T02:31:36.197Z,6.72
2022-10-01T02:34:40.493Z,6.73
2022-10-01T02:37:44.630Z,6.72
2022-10-01T02:40:48.218Z,6.78
2022-10-01T02:43:58.994Z,6.82
2022-10-01T02:47:07.836Z,6.87
2022-10-01T02:50:09.878Z,6.91
2022-10-01T02:53:21.303Z,6.95
2022-10-01T02:56:59.810Z,6.98
2022-10-01T03:00:06.612Z,7.02
2022-10-01T03:03:08.332Z,7.05
2022-10-01T03:06:09.940Z,7.08
2022-10-01T03:09:11.669Z,7.07
2022-10-01T03:12:13.308Z,7.13
2022-10-01T03:15:19.231Z,7.14
2022-10-01T03:18:20.968Z,7.14
2022-10-01T03:21:22.607Z,7.14
2022-10-01T03:24:24.371Z,7.18
2022-10-01T03:27:26.138Z,7.09
2022-10-01T03:30:28.498Z,7.14
2022-10-01T03:33:30.235Z,7.17
2022-10-01T03:36:31.979Z,7.15
2022-10-01T03:39:34.210Z,7.15
2022-10-01T03:42:35.829Z,7.12
2022-10-01T03:45:37.466Z,7.11
2022-10-01T03:48:39.185Z,7.11
2022-10-01T03:51:40.989Z,7.08
2022-10-01T03:54:42.681Z,7.01
2022-10-01T03:57:44.380Z,7.06
2022-10-01T04:00:47.751Z,7.05
2022-10-01T04:03:50.348Z,6.97
2022-10-01T04:06:52.101Z,7.02
2022-10-01T04:09:56.394Z,6.99
2022-10-01T04:12:58.073Z,7.04
2022-10-01T04:15:59.888Z,7.00
2022-10-01T04:19:03.576Z,7.06
2022-10-01T04:22:05.321Z,7.05
2022-10-01T04:25:10.938Z,7.09
2022-10-01T04:28:13.694Z,7.12
2022-10-01T04:31:24.332Z,7.13
2022-10-01T04:34:46.028Z,7.13
2022-10-01T04:37:48.115Z,7.18
2022-10-01T04:40:49.752Z,7.19
2022-10-01T04:43:51.794Z,7.21
2022-10-01T04:46:53.881Z,7.23
2022-10-01T04:49:55.622Z,7.26
2022-10-01T04:52:57.305Z,7.22
2022-10-01T04:55:58.947Z,7.22
2022-10-01T04:59:00.738Z,7.28
2022-10-01T05:02:02.422Z,7.31
2022-10-01T05:05:06.742Z,7.31
2022-10-01T05:08:08.450Z,7.31
2022-10-01T05:11:10.222Z,7.32
2022-10-01T05:14:12.356Z,7.33
2022-10-01T05:17:18.207Z,7.35
2022-10-01T05:20:23.163Z,7.36
2022-10-01T05:23:24.827Z,7.37
2022-10-01T05:26:26.759Z,7.40
2022-10-01T05:29:28.384Z,7.39
2022-10-01T05:32:31.306Z,7.43
2022-10-01T05:35:33.102Z,7.40
2022-10-01T05:38:37.685Z,7.40
2022-10-01T05:41:41.048Z,7.48
2022-10-01T05:44:46.250Z,7.49
2022-10-01T05:47:49.681Z,7.50
2022-10-01T05:50:51.824Z,7.53
2022-10-01T05:53:59.110Z,7.50
2022-10-01T05:57:00.799Z,7.56
2022-10-01T06:00:02.545Z,7.61
2022-10-01T06:03:13.791Z,7.65
2022-10-01T06:06:15.507Z,7.69
2022-10-01T06:09:17.445Z,7.74
2022-10-01T06:12:20.021Z,7.79
2022-10-01T06:15:21.811Z,7.83
2022-10-01T06:18:23.764Z,7.90
2022-10-01T06:21:26.404Z,7.88
2022-10-01T06:24:28.172Z,8.00
2022-10-01T06:27:29.755Z,8.05
2022-10-01T06:30:33.667Z,8.10
2022-10-01T06:33:36.191Z,8.15
2022-10-01T06:36:38.963Z,8.19
2022-10-01T06:39:40.718Z,8.26
2022-10-01T06:42:48.132Z,8.32
2022-10-01T06:45:50.034Z,8.35
2022-10-01T06:48:51.738Z,8.42
2022-10-01T06:52:11.840Z,8.48
2022-10-01T06:55:16.661Z,8.55
2022-10-01T06:58:21.605Z,8.59
2022-10-01T07:01:23.299Z,8.64
2022-10-01T07:04:25.808Z,8.68
2022-10-01T07:07:32.135Z,8.73
2022-10-01T07:10:35.518Z,8.77
2022-10-01T07:13:37.235Z,8.83
2022-10-01T07:16:39.435Z,8.87
2022-10-01T07:19:41.375Z,8.91
2022-10-01T07:22:43.619Z,8.92
2022-10-01T07:25:45.685Z,9.00
2022-10-01T07:28:47.329Z,9.04
2022-10-01T07:31:50.143Z,9.09
2022-10-01T07:35:10.752Z,9.06
2022-10-01T07:38:12.436Z,9.19
2022-10-01T07:41:17.309Z,9.19
2022-10-01T07:44:19.787Z,9.25
2022-10-01T07:47:22.306Z,9.29
2022-10-01T07:50:24.410Z,9.27
2022-10-01T07:53:26.582Z,9.31
2022-10-01T07:56:28.206Z,9.40
2022-10-01T07:59:31.235Z,9.46
2022-10-01T08:02:33.039Z,9.48
2022-10-01T08:05:36.149Z,9.52
2022-10-01T08:08:37.800Z,9.57
2022-10-01T08:11:39.635Z,9.60
2022-10-01T08:14:41.394Z,9.63
2022-10-01T08:17:43.690Z,9.69
2022-10-01T08:20:46.127Z,9.75
2022-10-01T08:23:47.761Z,9.75
2022-10-01T08:26:55.924Z,9.84
2022-10-01T08:29:57.590Z,9.88
2022-10-01T08:33:01.093Z,9.92
2022-10-01T08:36:04.232Z,9.91
2022-10-01T08:39:05.975Z,9.96
2022-10-01T08:42:39.161Z,10.01
2022-10-01T08:45:45.745Z,10.12
2022-10-01T08:49:05.747Z,10.18
2022-10-01T08:52:23.385Z,10.24
2022-10-01T08:55:28.344Z,10.27
2022-10-01T08:58:41.387Z,10.31
2022-10-01T09:01:43.607Z,10.30
2022-10-01T09:04:46.713Z,10.40
2022-10-01T09:08:08.177Z,10.45
2022-10-01T09:11:29.189Z,10.47
2022-10-01T09:14:51.139Z,10.51
2022-10-01T09:17:58.613Z,10.50
2022-10-01T09:21:00.504Z,10.51
2022-10-01T09:24:05.109Z,10.51
2022-10-01T09:27:25.639Z,10.53
2022-10-01T09:30:30.142Z,10.56
2022-10-01T09:33:35.321Z,10.59
2022-10-01T09:36:41.953Z,10.59
2022-10-01T09:40:22.060Z,10.56
2022-10-01T09:43:27.645Z,10.52
2022-10-01T09:46:29.389Z,10.52
2022-10-01T09:49:39.521Z,10.49
2022-10-01T09:52:42.600Z,10.42
2022-10-01T09:55:50.019Z,10.41
2022-10-01T09:58:56.888Z,10.31
2022-10-01T10:02:01.308Z,10.27
2022-10-01T10:05:09.923Z,10.22
2022-10-01T10:08:33.599Z,10.18
2022-10-01T10:11:35.711Z,10.16
2022-10-01T10:14:41.883Z,10.12
2022-10-01T10:17:46.311Z,10.11
2022-10-01T10:20:52.654Z,10.09
2022-10-01T10:24:00.628Z,10.08
2022-10-01T10:27:05.176Z,10.07
2022-10-01T10:30:17.754Z,10.04
2022-10-01T10:33:21.951Z,10.02
2022-10-01T10:36:32.679Z,10.03
2022-10-01T10:39:39.143Z,10.03
2022-10-01T10:42:47.955Z,10.01
2022-10-01T10:45:56.375Z,10.00
2022-10-01T10:49:06.342Z,10.01
2022-10-01T10:52:20.858Z,10.01
2022-10-01T10:55:27.423Z,10.02
2022-10-01T10:58:34.622Z,9.97
2022-10-01T11:01:42.899Z,10.00
2022-10-01T11:04:46.011Z,9.98
2022-10-01T11:07:50.829Z,9.96
2022-10-01T11:11:09.039Z,9.97
2022-10-01T11:14:35.400Z,9.96
2022-10-01T11:18:18.426Z,9.93
2022-10-01T11:21:31.865Z,9.91
2022-10-01T11:24:48.892Z,9.92
2022-10-01T11:28:17.492Z,9.89
2022-10-01T11:31:40.615Z,9.86
2022-10-01T11:35:10.368Z,9.85
2022-10-01T11:38:11.994Z,9.86
2022-10-01T11:41:34.054Z,9.85
2022-10-01T11:44:51.141Z,9.88
2022-10-01T11:48:00.385Z,9.87
2022-10-01T11:51:08.678Z,9.88
2022-10-01T11:54:16.630Z,9.88
2022-10-01T11:57:37.821Z,9.87
2022-10-01T12:00:41.578Z,9.89
2022-10-01T12:03:52.079Z,9.90
2022-10-01T12:07:03.086Z,9.91
2022-10-01T12:10:22.985Z,9.90
2022-10-01T12:13:33.192Z,9.93
2022-10-01T12:16:52.082Z,9.92
2022-10-01T12:19:57.218Z,9.93
2022-10-01T12:23:02.605Z,9.92
2022-10-01T12:26:43.383Z,9.97
2022-10-01T12:29:44.968Z,9.99
2022-10-01T12:32:55.796Z,10.01
2022-10-01T12:36:12.157Z,9.99
2022-10-01T12:39:38.950Z,10.00
2022-10-01T12:43:04.383Z,10.02
2022-10-01T12:46:25.828Z,10.04
2022-10-01T12:49:59.413Z,10.07
2022-10-01T12:53:28.629Z,10.08
2022-10-01T12:56:40.207Z,10.08
2022-10-01T13:00:02.090Z,10.12
2022-10-01T13:03:28.623Z,10.12
2022-10-01T13:06:38.596Z,10.14
2022-10-01T13:09:49.641Z,10.15
2022-10-01T13:13:04.361Z,10.17
2022-10-01T13:16:21.764Z,10.17
2022-10-01T13:20:14.125Z,10.18
2022-10-01T13:23:33.944Z,10.20
2022-10-01T13:26:59.677Z,10.24
2022-10-01T13:30:14.116Z,10.25
2022-10-01T13:33:32.090Z,10.27
2022-10-01T13:36:36.427Z,10.29
2022-10-01T13:39:42.135Z,10.31
2022-10-01T13:42:47.004Z,10.35
2022-10-01T13:45:54.614Z,10.37
2022-10-01T13:49:00.152Z,10.40
2022-10-01T13:52:03.111Z,10.47
2022-10-01T13:55:05.095Z,10.53
2022-10-01T13:58:21.113Z,10.50
2022-10-01T14:01:24.217Z,10.61
2022-10-01T14:04:41.940Z,10.64
2022-10-01T14:07:46.361Z,10.68
2022-10-01T14:11:15.090Z,10.69
2022-10-01T14:14:47.682Z,10.77
2022-10-01T14:17:53.119Z,10.78
2022-10-01T14:21:15.422Z,10.83
2022-10-01T14:24:24.122Z,10.88
2022-10-01T14:27:44.487Z,10.91
2022-10-01T14:31:02.415Z,10.98
2022-10-01T14:34:10.036Z,11.02
2022-10-01T14:37:17.130Z,11.05
2022-10-01T14:40:22.852Z,11.08
2022-10-01T14:43:27.823Z,11.13
2022-10-01T14:46:29.568Z,11.12
2022-10-01T14:49:32.806Z,11.16
2022-10-01T14:52:35.713Z,11.18
2022-10-01T14:55:37.542Z,11.19
2022-10-01T14:58:41.640Z,11.18
2022-10-01T15:01:54.455Z,11.18
2022-10-01T15:04:57.543Z,11.17
2022-10-01T15:08:13.395Z,11.20
2022-10-01T15:11:28.674Z,11.21
2022-10-01T15:14:32.110Z,11.19
2022-10-01T15:17:36.103Z,11.19
2022-10-01T15:20:38.440Z,11.21
2022-10-01T15:23:41.436Z,11.15
2022-10-01T15:26:47.475Z,11.14
2022-10-01T15:29:56.419Z,11.17
2022-10-01T15:32:58.570Z,11.18
2022-10-01T15:36:04.045Z,11.15
2022-10-01T15:39:23.876Z,11.12
2022-10-01T15:42:31.536Z,11.15
2022-10-01T15:45:33.475Z,11.14
2022-10-01T15:48:35.274Z,11.14
2022-10-01T15:51:38.172Z,11.10
2022-10-01T15:54:42.928Z,11.07
2022-10-01T15:57:45.302Z,11.13
2022-10-01T16:00:47.553Z,11.11
2022-10-01T16:04:06.975Z,11.08
2022-10-01T16:07:19.809Z,11.07
2022-10-01T16:10:32.547Z,11.07
2022-10-01T16:13:39.277Z,11.10
2022-10-01T16:16:41.093Z,11.08
2022-10-01T16:19:44.461Z,11.07
2022-10-01T16:22:46.075Z,11.07
2022-10-01T16:25:47.928Z,11.03
2022-10-01T16:29:06.189Z,11.11
2022-10-01T16:32:12.656Z,11.09
2022-10-01T16:35:14.713Z,11.09
2022-10-01T16:38:16.388Z,11.06
2022-10-01T16:41:22.749Z,11.06
2022-10-01T16:44:24.428Z,11.09
2022-10-01T16:47:26.297Z,11.06
2022-10-01T16:50:28.088Z,11.05
2022-10-01T16:53:29.756Z,11.08
2022-10-01T16:56:31.403Z,11.09
2022-10-01T16:59:33.936Z,11.10
2022-10-01T17:02:35.646Z,11.11
2022-10-01T17:05:37.632Z,11.11
2022-10-01T17:08:39.245Z,11.10
2022-10-01T17:11:43.809Z,11.05
2022-10-01T17:14:45.606Z,11.11
2022-10-01T17:17:47.276Z,11.10
2022-10-01T17:20:48.901Z,11.09
2022-10-01T17:23:53.467Z,11.12
2022-10-01T17:26:55.398Z,11.12
2022-10-01T17:29:57.280Z,11.11
2022-10-01T17:33:00.133Z,11.13
2022-10-01T17:36:06.645Z,11.15
2022-10-01T17:39:08.527Z,11.14
2022-10-01T17:42:10.994Z,11.14
2022-10-01T17:45:14.219Z,11.12
2022-10-01T17:48:18.891Z,11.11
2022-10-01T17:51:23.840Z,11.12
2022-10-01T17:54:25.678Z,11.14
2022-10-01T17:57:27.518Z,11.13
2022-10-01T18:00:29.204Z,11.12
2022-10-01T18:03:30.794Z,11.12
2022-10-01T18:06:32.792Z,11.07
2022-10-01T18:09:35.816Z,11.14
2022-10-01T18:12:37.604Z,11.15
2022-10-01T18:15:39.254Z,11.12
2022-10-01T18:22:13.740Z,11.18
2022-10-01T18:25:16.900Z,11.21
2022-10-01T18:28:19.272Z,11.20
2022-10-01T18:31:28.675Z,11.21
2022-10-01T18:34:54.411Z,11.24
2022-10-01T18:38:01.816Z,11.25
2022-10-01T18:41:10.166Z,11.28
2022-10-01T18:44:20.287Z,11.27
2022-10-01T18:47:41.026Z,11.31
2022-10-01T18:51:09.276Z,11.30
2022-10-01T18:54:25.359Z,11.31
2022-10-01T18:57:30.305Z,11.32
2022-10-01T19:00:42.608Z,11.34
2022-10-01T19:04:06.095Z,11.35
2022-10-01T19:07:07.689Z,11.35
2022-10-01T19:10:34.112Z,11.35
2022-10-01T19:14:05.079Z,11.36
2022-10-01T19:17:31.772Z,11.39
2022-10-01T19:20:56.750Z,11.40
2022-10-01T19:24:10.720Z,11.43
2022-10-01T19:27:45.820Z,11.45
2022-10-01T19:30:53.847Z,11.47
2022-10-01T19:34:21.896Z,11.48
2022-10-01T19:37:30.884Z,11.50
2022-10-01T19:40:51.187Z,11.50
2022-10-01T19:43:59.994Z,11.51
2022-10-01T19:47:16.502Z,11.52
2022-10-01T19:50:21.169Z,11.53
2022-10-01T19:53:29.346Z,11.54
2022-10-01T19:56:33.964Z,11.57
2022-10-01T19:59:35.890Z,11.55
2022-10-01T20:02:42.355Z,11.55
2022-10-01T20:05:55.495Z,11.55
2022-10-01T20:09:01.674Z,11.56
2022-10-01T20:12:36.142Z,11.55
2022-10-01T20:15:40.773Z,11.57
2022-10-01T20:18:54.601Z,11.57
2022-10-01T20:22:22.082Z,11.57
2022-10-01T20:25:26.748Z,11.57
2022-10-01T20:28:42.197Z,11.56
2022-10-01T20:32:15.753Z,11.56
2022-10-01T20:35:42.059Z,11.54
2022-10-01T20:38:53.788Z,11.54
2022-10-01T20:41:56.302Z,11.52
2022-10-01T20:44:58.498Z,11.45
2022-10-01T20:48:11.932Z,11.52
2022-10-01T20:51:27.120Z,11.52
2022-10-01T20:54:41.365Z,11.50
2022-10-01T20:58:05.555Z,11.52
2022-10-01T21:01:14.035Z,11.51
2022-10-01T21:04:19.620Z,11.51
2022-10-01T21:07:37.865Z,11.52
2022-10-01T21:10:57.976Z,11.53
2022-10-01T21:14:22.859Z,11.53
2022-10-01T21:17:45.085Z,11.52
2022-10-01T21:21:15.964Z,11.52
2022-10-01T21:24:41.792Z,11.53
2022-10-01T21:28:26.798Z,11.53
2022-10-01T21:31:41.705Z,11.50
2022-10-01T21:34:59.318Z,11.50
2022-10-01T21:38:30.340Z,11.52
2022-10-01T21:41:48.369Z,11.53
2022-10-01T21:45:13.740Z,11.51
2022-10-01T21:48:24.484Z,11.52
2022-10-01T21:51:38.188Z,11.53
2022-10-01T21:55:02.044Z,11.54
2022-10-01T21:58:48.863Z,11.53
2022-10-01T22:02:09.881Z,11.54
2022-10-01T22:05:29.319Z,11.54
2022-10-01T22:08:49.215Z,11.54
2022-10-01T22:11:58.337Z,11.53
2022-10-01T22:15:01.101Z,11.52
2022-10-01T22:18:06.227Z,11.58
2022-10-01T22:21:12.151Z,11.57
2022-10-01T22:24:17.567Z,11.58
2022-10-01T22:27:24.878Z,11.58
2022-10-01T22:30:28.991Z,11.61
2022-10-01T22:33:40.679Z,11.61
2022-10-01T22:36:49.070Z,11.64
2022-10-01T22:39:57.909Z,11.65
2022-10-01T22:43:05.834Z,11.67
2022-10-01T22:46:44.558Z,11.68
2022-10-01T22:50:31.511Z,11.67
2022-10-01T22:53:42.361Z,11.66
2022-10-01T22:56:57.434Z,11.66
2022-10-01T23:00:10.828Z,11.64
2022-10-01T23:03:31.429Z,11.63
2022-10-01T23:07:07.923Z,11.61
2022-10-01T23:10:21.730Z,11.60
2022-10-01T23:13:28.844Z,11.58
2022-10-01T23:16:41.818Z,11.56
2022-10-01T23:19:49.553Z,11.56
2022-10-01T23:23:21.591Z,11.55
2022-10-01T23:26:35.037Z,11.52
2022-10-01T23:29:47.305Z,11.54
2022-10-01T23:33:13.711Z,11.54
2022-10-01T23:36:39.814Z,11.56
2022-10-01T23:40:07.776Z,11.52
2022-10-01T23:43:25.999Z,11.53
2022-10-01T23:46:31.546Z,11.53
2022-10-01T23:49:38.778Z,11.52
2022-10-01T23:53:15.328Z,11.53
2022-10-01T23:56:47.381Z,11.50
2022-10-01T23:59:58.643Z,11.48
